sensor_id;sensor_type;location;lat;lon;timestamp;P1;durP1;ratioP1;P2;durP2;ratioP2
19826;SDS011;10074;52.018;4.726;2022-11-20T00:03:50;14.40;;;3.07;;
19826;SDS011;10074;52.018;4.726;2022-11-20T00:08:53;8.60;;;2.33;;
19826;SDS011;10074;52.018;4.726;2022-11-20T00:13:56;4.43;;;2.77;;
19826;SDS011;10074;52.018;4.726;2022-11-20T00:18:59;1.83;;;1.73;;
19826;SDS011;10074;52.018;4.726;2022-11-20T00:23:59;2.37;;;1.90;;
19826;SDS011;10074;52.018;4.726;2022-11-20T00:29:00;2.90;;;2.37;;
19826;SDS011;10074;52.018;4.726;2022-11-20T00:34:01;2.47;;;1.60;;
19826;SDS011;10074;52.018;4.726;2022-11-20T00:39:02;4.73;;;1.57;;
19826;SDS011;10074;52.018;4.726;2022-11-20T00:44:02;3.20;;;2.37;;
19826;SDS011;10074;52.018;4.726;2022-11-20T00:49:03;6.07;;;3.70;;
19826;SDS011;10074;52.018;4.726;2022-11-20T00:54:03;3.43;;;3.13;;
19826;SDS011;10074;52.018;4.726;2022-11-20T00:59:03;8.80;;;3.50;;
19826;SDS011;10074;52.018;4.726;2022-11-20T01:04:04;1.80;;;1.67;;
19826;SDS011;10074;52.018;4.726;2022-11-20T01:09:06;3.80;;;2.03;;
19826;SDS011;10074;52.018;4.726;2022-11-20T01:14:12;2.00;;;1.37;;
19826;SDS011;10074;52.018;4.726;2022-11-20T01:19:18;2.70;;;1.10;;
19826;SDS011;10074;52.018;4.726;2022-11-20T01:24:20;2.30;;;1.50;;
19826;SDS011;10074;52.018;4.726;2022-11-20T01:29:22;2.43;;;2.23;;
19826;SDS011;10074;52.018;4.726;2022-11-20T01:34:24;2.63;;;1.13;;
19826;SDS011;10074;52.018;4.726;2022-11-20T01:39:25;2.33;;;2.13;;
19826;SDS011;10074;52.018;4.726;2022-11-20T01:44:43;2.23;;;1.60;;
19826;SDS011;10074;52.018;4.726;2022-11-20T01:49:58;2.00;;;1.73;;
19826;SDS011;10074;52.018;4.726;2022-11-20T02:00:13;2.63;;;1.40;;
19826;SDS011;10074;52.018;4.726;2022-11-20T02:05:17;2.17;;;1.00;;
19826;SDS011;10074;52.018;4.726;2022-11-20T02:10:24;0.93;;;0.93;;
19826;SDS011;10074;52.018;4.726;2022-11-20T02:15:25;1.80;;;1.57;;
19826;SDS011;10074;52.018;4.726;2022-11-20T02:20:26;2.37;;;1.70;;
19826;SDS011;10074;52.018;4.726;2022-11-20T02:25:26;3.37;;;1.30;;
19826;SDS011;10074;52.018;4.726;2022-11-20T02:30:28;1.63;;;1.50;;
19826;SDS011;10074;52.018;4.726;2022-11-20T02:40:29;0.90;;;0.90;;
19826;SDS011;10074;52.018;4.726;2022-11-20T02:45:29;1.77;;;1.67;;
19826;SDS011;10074;52.018;4.726;2022-11-20T02:50:30;1.43;;;1.33;;
19826;SDS011;10074;52.018;4.726;2022-11-20T02:55:30;1.73;;;1.63;;
19826;SDS011;10074;52.018;4.726;2022-11-20T03:00:31;1.83;;;1.47;;
19826;SDS011;10074;52.018;4.726;2022-11-20T03:05:31;1.53;;;1.43;;
19826;SDS011;10074;52.018;4.726;2022-11-20T03:10:33;1.67;;;1.53;;
19826;SDS011;10074;52.018;4.726;2022-11-20T03:15:35;1.93;;;1.83;;
19826;SDS011;10074;52.018;4.726;2022-11-20T03:20:36;3.43;;;2.27;;
19826;SDS011;10074;52.018;4.726;2022-11-20T03:25:36;0.93;;;0.93;;
19826;SDS011;10074;52.018;4.726;2022-11-20T03:30:37;0.97;;;0.97;;
19826;SDS011;10074;52.018;4.726;2022-11-20T03:35:37;1.85;;;1.75;;
19826;SDS011;10074;52.018;4.726;2022-11-20T03:40:37;2.97;;;1.97;;
19826;SDS011;10074;52.018;4.726;2022-11-20T03:45:37;2.87;;;1.73;;
19826;SDS011;10074;52.018;4.726;2022-11-20T03:50:38;1.17;;;1.10;;
19826;SDS011;10074;52.018;4.726;2022-11-20T03:55:38;2.57;;;2.40;;
19826;SDS011;10074;52.018;4.726;2022-11-20T04:00:38;1.93;;;1.63;;
19826;SDS011;10074;52.018;4.726;2022-11-20T04:05:39;2.03;;;1.50;;
19826;SDS011;10074;52.018;4.726;2022-11-20T04:10:39;3.17;;;1.37;;
19826;SDS011;10074;52.018;4.726;2022-11-20T04:15:39;1.17;;;1.07;;
19826;SDS011;10074;52.018;4.726;2022-11-20T04:20:40;2.17;;;1.67;;
19826;SDS011;10074;52.018;4.726;2022-11-20T04:25:41;3.87;;;2.10;;
19826;SDS011;10074;52.018;4.726;2022-11-20T04:30:41;2.33;;;1.60;;
19826;SDS011;10074;52.018;4.726;2022-11-20T04:35:48;2.50;;;1.80;;
19826;SDS011;10074;52.018;4.726;2022-11-20T04:40:48;2.33;;;1.40;;
19826;SDS011;10074;52.018;4.726;2022-11-20T04:45:55;1.63;;;1.03;;
19826;SDS011;10074;52.018;4.726;2022-11-20T04:50:56;1.17;;;1.10;;
19826;SDS011;10074;52.018;4.726;2022-11-20T04:56:01;3.13;;;1.50;;
19826;SDS011;10074;52.018;4.726;2022-11-20T05:01:06;1.57;;;1.47;;
19826;SDS011;10074;52.018;4.726;2022-11-20T05:06:13;0.77;;;0.73;;
19826;SDS011;10074;52.018;4.726;2022-11-20T05:11:17;1.37;;;1.27;;
19826;SDS011;10074;52.018;4.726;2022-11-20T05:16:20;1.50;;;1.40;;
19826;SDS011;10074;52.018;4.726;2022-11-20T05:21:22;1.27;;;1.17;;
19826;SDS011;10074;52.018;4.726;2022-11-20T05:26:23;2.00;;;1.67;;
19826;SDS011;10074;52.018;4.726;2022-11-20T05:31:24;1.90;;;1.67;;
19826;SDS011;10074;52.018;4.726;2022-11-20T05:36:25;1.60;;;1.40;;
19826;SDS011;10074;52.018;4.726;2022-11-20T05:41:25;1.83;;;1.73;;
19826;SDS011;10074;52.018;4.726;2022-11-20T05:46:26;0.77;;;0.77;;
19826;SDS011;10074;52.018;4.726;2022-11-20T05:51:26;1.33;;;1.23;;
19826;SDS011;10074;52.018;4.726;2022-11-20T05:56:27;2.80;;;1.90;;
19826;SDS011;10074;52.018;4.726;2022-11-20T06:01:28;1.10;;;1.00;;
19826;SDS011;10074;52.018;4.726;2022-11-20T06:06:28;1.20;;;1.10;;
19826;SDS011;10074;52.018;4.726;2022-11-20T06:11:28;2.63;;;1.67;;
19826;SDS011;10074;52.018;4.726;2022-11-20T06:16:28;1.67;;;1.58;;
19826;SDS011;10074;52.018;4.726;2022-11-20T06:21:29;1.20;;;1.00;;
19826;SDS011;10074;52.018;4.726;2022-11-20T06:26:29;1.23;;;1.13;;
19826;SDS011;10074;52.018;4.726;2022-11-20T06:31:30;2.13;;;1.40;;
19826;SDS011;10074;52.018;4.726;2022-11-20T06:36:35;1.53;;;1.43;;
19826;SDS011;10074;52.018;4.726;2022-11-20T06:41:35;1.27;;;1.17;;
19826;SDS011;10074;52.018;4.726;2022-11-20T06:46:35;1.50;;;1.40;;
19826;SDS011;10074;52.018;4.726;2022-11-20T06:51:36;1.10;;;1.00;;
19826;SDS011;10074;52.018;4.726;2022-11-20T06:56:36;1.50;;;1.40;;
19826;SDS011;10074;52.018;4.726;2022-11-20T07:01:36;1.40;;;1.30;;
19826;SDS011;10074;52.018;4.726;2022-11-20T07:06:37;1.70;;;1.50;;
19826;SDS011;10074;52.018;4.726;2022-11-20T07:11:37;4.30;;;1.67;;
19826;SDS011;10074;52.018;4.726;2022-11-20T07:16:38;1.30;;;1.20;;
19826;SDS011;10074;52.018;4.726;2022-11-20T07:21:38;1.83;;;1.73;;
19826;SDS011;10074;52.018;4.726;2022-11-20T07:26:39;1.83;;;1.40;;
19826;SDS011;10074;52.018;4.726;2022-11-20T07:31:39;2.40;;;1.37;;
19826;SDS011;10074;52.018;4.726;2022-11-20T07:36:39;4.10;;;1.50;;
19826;SDS011;10074;52.018;4.726;2022-11-20T07:41:39;1.83;;;1.37;;
19826;SDS011;10074;52.018;4.726;2022-11-20T07:46:40;1.10;;;1.10;;
19826;SDS011;10074;52.018;4.726;2022-11-20T07:51:40;1.70;;;1.60;;
19826;SDS011;10074;52.018;4.726;2022-11-20T07:56:42;1.37;;;1.27;;
19826;SDS011;10074;52.018;4.726;2022-11-20T08:01:45;2.10;;;1.20;;
19826;SDS011;10074;52.018;4.726;2022-11-20T08:06:45;1.23;;;1.13;;
19826;SDS011;10074;52.018;4.726;2022-11-20T08:11:45;1.07;;;1.07;;
19826;SDS011;10074;52.018;4.726;2022-11-20T08:22:07;1.47;;;1.30;;
19826;SDS011;10074;52.018;4.726;2022-11-20T08:27:08;1.42;;;1.33;;
19826;SDS011;10074;52.018;4.726;2022-11-20T08:32:08;1.37;;;1.17;;
19826;SDS011;10074;52.018;4.726;2022-11-20T08:37:09;4.00;;;1.40;;
19826;SDS011;10074;52.018;4.726;2022-11-20T08:42:09;5.13;;;2.40;;
19826;SDS011;10074;52.018;4.726;2022-11-20T08:47:10;5.47;;;1.97;;
19826;SDS011;10074;52.018;4.726;2022-11-20T08:52:10;2.53;;;1.97;;
19826;SDS011;10074;52.018;4.726;2022-11-20T08:57:10;9.87;;;3.27;;
19826;SDS011;10074;52.018;4.726;2022-11-20T09:02:10;3.17;;;2.53;;
19826;SDS011;10074;52.018;4.726;2022-11-20T09:07:13;5.10;;;2.73;;
19826;SDS011;10074;52.018;4.726;2022-11-20T09:12:13;4.97;;;2.63;;
19826;SDS011;10074;52.018;4.726;2022-11-20T09:17:13;3.30;;;2.80;;
19826;SDS011;10074;52.018;4.726;2022-11-20T09:22:14;5.00;;;2.27;;
19826;SDS011;10074;52.018;4.726;2022-11-20T09:27:15;4.30;;;2.93;;
19826;SDS011;10074;52.018;4.726;2022-11-20T09:32:20;2.80;;;2.43;;
19826;SDS011;10074;52.018;4.726;2022-11-20T09:37:20;3.10;;;2.60;;
19826;SDS011;10074;52.018;4.726;2022-11-20T09:58:16;3.90;;;2.33;;
19826;SDS011;10074;52.018;4.726;2022-11-20T10:03:23;5.53;;;1.83;;
19826;SDS011;10074;52.018;4.726;2022-11-20T10:08:49;4.33;;;2.93;;
19826;SDS011;10074;52.018;4.726;2022-11-20T10:24:57;4.63;;;3.53;;
19826;SDS011;10074;52.018;4.726;2022-11-20T10:40:41;4.53;;;3.60;;
19826;SDS011;10074;52.018;4.726;2022-11-20T10:45:46;3.63;;;3.33;;
19826;SDS011;10074;52.018;4.726;2022-11-20T10:50:59;6.10;;;3.97;;
19826;SDS011;10074;52.018;4.726;2022-11-20T10:56:14;3.77;;;2.73;;
19826;SDS011;10074;52.018;4.726;2022-11-20T11:01:22;6.63;;;4.57;;
19826;SDS011;10074;52.018;4.726;2022-11-20T11:11:39;3.50;;;2.10;;
19826;SDS011;10074;52.018;4.726;2022-11-20T11:16:49;3.37;;;3.03;;
19826;SDS011;10074;52.018;4.726;2022-11-20T11:21:52;3.77;;;1.90;;
19826;SDS011;10074;52.018;4.726;2022-11-20T11:27:02;5.93;;;3.00;;
19826;SDS011;10074;52.018;4.726;2022-11-20T11:32:19;4.57;;;2.83;;
19826;SDS011;10074;52.018;4.726;2022-11-20T11:37:21;3.23;;;3.03;;
19826;SDS011;10074;52.018;4.726;2022-11-20T11:42:22;3.67;;;3.00;;
19826;SDS011;10074;52.018;4.726;2022-11-20T11:47:27;3.13;;;2.67;;
19826;SDS011;10074;52.018;4.726;2022-11-20T11:58:20;5.57;;;3.47;;
19826;SDS011;10074;52.018;4.726;2022-11-20T12:03:35;3.00;;;2.73;;
19826;SDS011;10074;52.018;4.726;2022-11-20T12:13:54;3.70;;;3.40;;
19826;SDS011;10074;52.018;4.726;2022-11-20T12:18:58;2.90;;;2.43;;
19826;SDS011;10074;52.018;4.726;2022-11-20T12:35:35;4.50;;;4.13;;
19826;SDS011;10074;52.018;4.726;2022-11-20T12:40:38;5.17;;;4.27;;
19826;SDS011;10074;52.018;4.726;2022-11-20T12:56:25;4.70;;;4.03;;
19826;SDS011;10074;52.018;4.726;2022-11-20T13:07:16;7.87;;;5.10;;
19826;SDS011;10074;52.018;4.726;2022-11-20T13:12:54;4.57;;;3.30;;
19826;SDS011;10074;52.018;4.726;2022-11-20T13:17:58;5.03;;;4.20;;
19826;SDS011;10074;52.018;4.726;2022-11-20T13:23:00;5.63;;;4.53;;
19826;SDS011;10074;52.018;4.726;2022-11-20T13:28:46;5.63;;;4.03;;
19826;SDS011;10074;52.018;4.726;2022-11-20T13:38:48;8.53;;;4.13;;
19826;SDS011;10074;52.018;4.726;2022-11-20T13:43:51;5.37;;;4.10;;
19826;SDS011;10074;52.018;4.726;2022-11-20T13:48:52;5.30;;;4.20;;
19826;SDS011;10074;52.018;4.726;2022-11-20T14:04:38;5.67;;;4.07;;
19826;SDS011;10074;52.018;4.726;2022-11-20T14:09:52;4.03;;;3.57;;
19826;SDS011;10074;52.018;4.726;2022-11-20T14:14:55;44.23;;;5.40;;
19826;SDS011;10074;52.018;4.726;2022-11-20T14:20:00;5.37;;;3.40;;
19826;SDS011;10074;52.018;4.726;2022-11-20T14:30:18;4.10;;;3.67;;
19826;SDS011;10074;52.018;4.726;2022-11-20T14:40:27;4.67;;;4.07;;
19826;SDS011;10074;52.018;4.726;2022-11-20T14:45:35;7.10;;;4.87;;
19826;SDS011;10074;52.018;4.726;2022-11-20T14:50:37;6.27;;;5.70;;
19826;SDS011;10074;52.018;4.726;2022-11-20T14:55:38;5.20;;;4.33;;
19826;SDS011;10074;52.018;4.726;2022-11-20T15:00:39;8.10;;;4.13;;
19826;SDS011;10074;52.018;4.726;2022-11-20T15:05:47;4.43;;;4.03;;
19826;SDS011;10074;52.018;4.726;2022-11-20T15:10:50;6.90;;;4.60;;
19826;SDS011;10074;52.018;4.726;2022-11-20T15:15:52;5.37;;;4.83;;
19826;SDS011;10074;52.018;4.726;2022-11-20T15:20:55;8.20;;;5.97;;
19826;SDS011;10074;52.018;4.726;2022-11-20T15:25:57;5.20;;;4.67;;
19826;SDS011;10074;52.018;4.726;2022-11-20T15:30:58;6.57;;;4.60;;
19826;SDS011;10074;52.018;4.726;2022-11-20T15:35:59;4.00;;;3.60;;
19826;SDS011;10074;52.018;4.726;2022-11-20T15:41:00;4.50;;;4.10;;
19826;SDS011;10074;52.018;4.726;2022-11-20T15:46:02;6.97;;;3.83;;
19826;SDS011;10074;52.018;4.726;2022-11-20T15:56:12;12.23;;;3.60;;
19826;SDS011;10074;52.018;4.726;2022-11-20T16:01:17;6.40;;;2.70;;
19826;SDS011;10074;52.018;4.726;2022-11-20T16:06:19;5.43;;;3.33;;
19826;SDS011;10074;52.018;4.726;2022-11-20T16:11:20;4.97;;;3.70;;
19826;SDS011;10074;52.018;4.726;2022-11-20T16:16:21;3.50;;;3.10;;
19826;SDS011;10074;52.018;4.726;2022-11-20T16:21:23;5.77;;;3.03;;
19826;SDS011;10074;52.018;4.726;2022-11-20T16:26:30;8.23;;;3.90;;
19826;SDS011;10074;52.018;4.726;2022-11-20T16:31:31;7.23;;;3.17;;
19826;SDS011;10074;52.018;4.726;2022-11-20T16:36:32;5.17;;;3.20;;
19826;SDS011;10074;52.018;4.726;2022-11-20T16:41:33;4.17;;;3.60;;
19826;SDS011;10074;52.018;4.726;2022-11-20T16:46:34;4.10;;;3.40;;
19826;SDS011;10074;52.018;4.726;2022-11-20T16:51:34;2.97;;;2.57;;
19826;SDS011;10074;52.018;4.726;2022-11-20T16:56:35;6.40;;;3.10;;
19826;SDS011;10074;52.018;4.726;2022-11-20T17:01:36;5.53;;;4.53;;
19826;SDS011;10074;52.018;4.726;2022-11-20T17:06:40;2.80;;;2.53;;
19826;SDS011;10074;52.018;4.726;2022-11-20T17:11:43;8.70;;;6.60;;
19826;SDS011;10074;52.018;4.726;2022-11-20T17:16:43;13.87;;;4.17;;
19826;SDS011;10074;52.018;4.726;2022-11-20T17:21:45;3.57;;;2.17;;
19826;SDS011;10074;52.018;4.726;2022-11-20T17:26:47;2.50;;;2.30;;
19826;SDS011;10074;52.018;4.726;2022-11-20T17:31:47;7.80;;;2.63;;
19826;SDS011;10074;52.018;4.726;2022-11-20T17:36:48;2.40;;;2.20;;
19826;SDS011;10074;52.018;4.726;2022-11-20T17:41:48;4.07;;;2.40;;
19826;SDS011;10074;52.018;4.726;2022-11-20T17:47:09;3.10;;;2.67;;
19826;SDS011;10074;52.018;4.726;2022-11-20T17:52:09;3.53;;;2.60;;
19826;SDS011;10074;52.018;4.726;2022-11-20T17:57:09;3.65;;;2.85;;
19826;SDS011;10074;52.018;4.726;2022-11-20T18:02:28;2.50;;;2.30;;
19826;SDS011;10074;52.018;4.726;2022-11-20T18:07:28;5.10;;;3.23;;
19826;SDS011;10074;52.018;4.726;2022-11-20T18:12:29;2.87;;;2.17;;
19826;SDS011;10074;52.018;4.726;2022-11-20T18:17:29;2.90;;;1.80;;
19826;SDS011;10074;52.018;4.726;2022-11-20T18:22:29;2.33;;;2.13;;
19826;SDS011;10074;52.018;4.726;2022-11-20T18:27:29;2.53;;;2.33;;
19826;SDS011;10074;52.018;4.726;2022-11-20T18:32:30;3.40;;;2.10;;
19826;SDS011;10074;52.018;4.726;2022-11-20T18:37:30;3.30;;;1.97;;
19826;SDS011;10074;52.018;4.726;2022-11-20T18:42:31;2.73;;;2.53;;
19826;SDS011;10074;52.018;4.726;2022-11-20T18:47:49;1.93;;;1.57;;
19826;SDS011;10074;52.018;4.726;2022-11-20T18:52:50;2.83;;;2.37;;
19826;SDS011;10074;52.018;4.726;2022-11-20T18:57:50;2.97;;;2.67;;
19826;SDS011;10074;52.018;4.726;2022-11-20T19:02:53;7.03;;;2.10;;
19826;SDS011;10074;52.018;4.726;2022-11-20T19:07:53;1.57;;;1.47;;
19826;SDS011;10074;52.018;4.726;2022-11-20T19:12:54;2.87;;;1.97;;
19826;SDS011;10074;52.018;4.726;2022-11-20T19:17:54;4.83;;;1.80;;
19826;SDS011;10074;52.018;4.726;2022-11-20T19:22:56;3.80;;;2.73;;
19826;SDS011;10074;52.018;4.726;2022-11-20T19:27:56;2.90;;;1.73;;
19826;SDS011;10074;52.018;4.726;2022-11-20T19:32:58;2.97;;;2.07;;
19826;SDS011;10074;52.018;4.726;2022-11-20T19:37:58;2.87;;;2.43;;
19826;SDS011;10074;52.018;4.726;2022-11-20T19:42:59;2.77;;;2.03;;
19826;SDS011;10074;52.018;4.726;2022-11-20T19:47:59;2.97;;;2.60;;
19826;SDS011;10074;52.018;4.726;2022-11-20T19:52:59;3.37;;;1.90;;
19826;SDS011;10074;52.018;4.726;2022-11-20T19:57:59;1.93;;;1.37;;
19826;SDS011;10074;52.018;4.726;2022-11-20T20:03:01;2.63;;;2.43;;
19826;SDS011;10074;52.018;4.726;2022-11-20T20:08:01;1.90;;;1.80;;
19826;SDS011;10074;52.018;4.726;2022-11-20T20:13:02;2.87;;;2.67;;
19826;SDS011;10074;52.018;4.726;2022-11-20T20:18:03;1.53;;;1.43;;
19826;SDS011;10074;52.018;4.726;2022-11-20T20:23:03;3.30;;;1.93;;
19826;SDS011;10074;52.018;4.726;2022-11-20T20:28:06;1.60;;;1.50;;
19826;SDS011;10074;52.018;4.726;2022-11-20T20:33:06;3.30;;;2.07;;
19826;SDS011;10074;52.018;4.726;2022-11-20T20:38:07;1.97;;;1.43;;
19826;SDS011;10074;52.018;4.726;2022-11-20T20:43:07;1.57;;;1.43;;
19826;SDS011;10074;52.018;4.726;2022-11-20T20:48:07;1.90;;;1.77;;
19826;SDS011;10074;52.018;4.726;2022-11-20T20:53:08;2.20;;;1.27;;
19826;SDS011;10074;52.018;4.726;2022-11-20T20:58:10;4.17;;;1.80;;
19826;SDS011;10074;52.018;4.726;2022-11-20T21:03:10;3.10;;;2.37;;
19826;SDS011;10074;52.018;4.726;2022-11-20T21:08:10;2.57;;;2.33;;
19826;SDS011;10074;52.018;4.726;2022-11-20T21:13:21;2.27;;;1.43;;
19826;SDS011;10074;52.018;4.726;2022-11-20T21:18:22;1.57;;;1.47;;
19826;SDS011;10074;52.018;4.726;2022-11-20T21:23:23;1.67;;;1.57;;
19826;SDS011;10074;52.018;4.726;2022-11-20T21:28:24;2.03;;;1.40;;
19826;SDS011;10074;52.018;4.726;2022-11-20T21:33:24;2.72;;;1.70;;
19826;SDS011;10074;52.018;4.726;2022-11-20T21:38:24;1.97;;;1.77;;
19826;SDS011;10074;52.018;4.726;2022-11-20T21:43:25;1.63;;;1.33;;
19826;SDS011;10074;52.018;4.726;2022-11-20T21:48:29;1.90;;;1.70;;
19826;SDS011;10074;52.018;4.726;2022-11-20T21:53:30;2.30;;;2.10;;
19826;SDS011;10074;52.018;4.726;2022-11-20T21:58:31;1.70;;;1.60;;
19826;SDS011;10074;52.018;4.726;2022-11-20T22:03:32;2.10;;;1.80;;
19826;SDS011;10074;52.018;4.726;2022-11-20T22:08:33;2.43;;;2.23;;
19826;SDS011;10074;52.018;4.726;2022-11-20T22:13:35;3.50;;;2.30;;
19826;SDS011;10074;52.018;4.726;2022-11-20T22:18:55;2.40;;;2.13;;
19826;SDS011;10074;52.018;4.726;2022-11-20T22:23:56;1.10;;;1.00;;
19826;SDS011;10074;52.018;4.726;2022-11-20T22:28:58;1.60;;;1.50;;
19826;SDS011;10074;52.018;4.726;2022-11-20T22:33:59;1.97;;;1.53;;
19826;SDS011;10074;52.018;4.726;2022-11-20T22:39:03;1.30;;;1.20;;
19826;SDS011;10074;52.018;4.726;2022-11-20T22:44:05;1.50;;;1.40;;
19826;SDS011;10074;52.018;4.726;2022-11-20T22:49:08;2.93;;;1.63;;
19826;SDS011;10074;52.018;4.726;2022-11-20T22:54:11;2.47;;;2.00;;
19826;SDS011;10074;52.018;4.726;2022-11-20T22:59:12;2.80;;;2.20;;
19826;SDS011;10074;52.018;4.726;2022-11-20T23:04:12;1.60;;;1.40;;
19826;SDS011;10074;52.018;4.726;2022-11-20T23:09:13;2.23;;;1.80;;
19826;SDS011;10074;52.018;4.726;2022-11-20T23:14:14;1.43;;;1.00;;
19826;SDS011;10074;52.018;4.726;2022-11-20T23:19:15;4.30;;;1.50;;
19826;SDS011;10074;52.018;4.726;2022-11-20T23:24:15;2.40;;;2.20;;
19826;SDS011;10074;52.018;4.726;2022-11-20T23:29:15;2.23;;;2.03;;
19826;SDS011;10074;52.018;4.726;2022-11-20T23:34:16;1.80;;;1.57;;
19826;SDS011;10074;52.018;4.726;2022-11-20T23:39:16;1.40;;;1.30;;
19826;SDS011;10074;52.018;4.726;2022-11-20T23:44:17;5.33;;;2.57;;
19826;SDS011;10074;52.018;4.726;2022-11-20T23:49:17;1.70;;;1.60;;
19826;SDS011;10074;52.018;4.726;2022-11-20T23:54:17;1.97;;;1.87;;
19826;SDS011;10074;52.018;4.726;2022-11-20T23:59:19;1.20;;;1.10;;
